Pagina principale
METAR-TAF:

METAR-TAF

Aeroporti :

Aeroporto di Jakutsk

Jakutsk, Russia

latitudine: 62-01N, longitudine: 129-43E, altezza: 103 m

Osservazione

Il bollettino è stato emesso 51 minuti fa, alle 22:30 UTC
Vento calmo
Temperature 13°C
Umidità 72%
Pressione 1010 hPa
Visibilità 10 km o più
nessuna nube inferiore a 1500 m e nessun cumulonembo

METAR: UEEE 192230Z 00000MPS CAVOK 13/08 Q1010 R23L/09//60 NOSIG RMK QFE749

Ora: 08:21 (23:21 UTC)

Previsione

Il bollettino è stato emesso 3 ore e 21 minuti fa, alle 20:00 UTC
Previsione valida dal 19 alle 21 UTC al 21 alle 03 UTC
Vento 6 kt da sud
Visibilità: 5000 m
fumo

TAF: UEEE 192000Z 1921/2103 18003MPS 5000 FU NSC

Osservazioni e previsioni meteorologiche di più di 4000 aeroporti (messaggi METAR e TAF).

Le stazioni disponibili sono rappresentate dai dischi gialli e rossi sulla carta.

Puntare il mouse per vedere il nome della stazione.

Clicca sopra per visualizzare le osservazioni e previsioni meteorologiche.

Per cambiare la mappa : fare clic sui pulsanti verdi con una croce nera per ingrandire, il pulsante verde con un trattino per diminuire, o sulla freccia verde per le mappe adiacenti.


METAR-TAF: